Ardmore, Tennessee
Current Conditions -  °F | °C
As of 1:35 AM on Friday 19 Dec 2014 (Local Time) from KFYM Reporting Station
Clear Clear  
Wind Chill: 30°   Ceiling: Unl
Heat Index: 30°   Visibility: 3mi
Dew Point: 28°   Wind: 3mph
Humidity: 93%   Direction: 10°N
Pressure: 30.18"   Gusts: NA
Location:  34.99°N, 86.85°W
Report Text: KFYM 190735Z AUTO 01003KT 3SM CLR M01/M02 A3018 RMK
Loading
Personal Weather Stations






























Interactive Weather Map New forecast layout! Learn more

10-Day Weather Forecast

Advertisements
Track Severe Weather on mobile